sensor_id;sensor_type;location;lat;lon;timestamp;P1;durP1;ratioP1;P2;durP2;ratioP2
4504;SDS011;2265;48.794;9.520;2024-03-29T00:01:20;5.60;;;3.30;;
4504;SDS011;2265;48.794;9.520;2024-03-29T00:03:46;6.60;;;3.30;;
4504;SDS011;2265;48.794;9.520;2024-03-29T00:06:12;6.87;;;3.40;;
4504;SDS011;2265;48.794;9.520;2024-03-29T00:08:39;5.87;;;3.33;;
4504;SDS011;2265;48.794;9.520;2024-03-29T00:11:05;5.97;;;3.33;;
4504;SDS011;2265;48.794;9.520;2024-03-29T00:13:31;5.83;;;3.40;;
4504;SDS011;2265;48.794;9.520;2024-03-29T00:15:57;7.80;;;3.60;;
4504;SDS011;2265;48.794;9.520;2024-03-29T00:18:25;5.10;;;2.83;;
4504;SDS011;2265;48.794;9.520;2024-03-29T00:20:51;4.77;;;2.80;;
4504;SDS011;2265;48.794;9.520;2024-03-29T00:23:17;6.10;;;3.00;;
4504;SDS011;2265;48.794;9.520;2024-03-29T00:25:43;6.90;;;3.30;;
4504;SDS011;2265;48.794;9.520;2024-03-29T00:28:09;2.97;;;2.30;;
4504;SDS011;2265;48.794;9.520;2024-03-29T00:30:36;5.77;;;2.73;;
4504;SDS011;2265;48.794;9.520;2024-03-29T00:33:02;2.80;;;1.90;;
4504;SDS011;2265;48.794;9.520;2024-03-29T00:35:30;1.77;;;1.50;;
4504;SDS011;2265;48.794;9.520;2024-03-29T00:37:56;2.77;;;1.87;;
4504;SDS011;2265;48.794;9.520;2024-03-29T00:40:22;1.90;;;1.60;;
4504;SDS011;2265;48.794;9.520;2024-03-29T00:42:48;1.80;;;1.30;;
4504;SDS011;2265;48.794;9.520;2024-03-29T00:45:14;2.60;;;1.70;;
4504;SDS011;2265;48.794;9.520;2024-03-29T00:47:40;3.27;;;2.00;;
4504;SDS011;2265;48.794;9.520;2024-03-29T00:50:07;9.60;;;3.13;;
4504;SDS011;2265;48.794;9.520;2024-03-29T00:52:35;4.93;;;2.90;;
4504;SDS011;2265;48.794;9.520;2024-03-29T00:55:01;5.70;;;2.93;;
4504;SDS011;2265;48.794;9.520;2024-03-29T00:57:28;8.57;;;3.40;;
4504;SDS011;2265;48.794;9.520;2024-03-29T00:59:54;5.87;;;2.93;;
4504;SDS011;2265;48.794;9.520;2024-03-29T01:02:20;4.50;;;2.43;;
4504;SDS011;2265;48.794;9.520;2024-03-29T01:04:46;5.20;;;2.80;;
4504;SDS011;2265;48.794;9.520;2024-03-29T01:07:13;6.87;;;3.20;;
4504;SDS011;2265;48.794;9.520;2024-03-29T01:09:41;9.17;;;3.50;;
4504;SDS011;2265;48.794;9.520;2024-03-29T01:12:08;5.20;;;3.00;;
4504;SDS011;2265;48.794;9.520;2024-03-29T01:14:34;5.70;;;3.13;;
4504;SDS011;2265;48.794;9.520;2024-03-29T01:17:01;5.33;;;2.90;;
4504;SDS011;2265;48.794;9.520;2024-03-29T01:19:30;5.50;;;2.80;;
4504;SDS011;2265;48.794;9.520;2024-03-29T01:21:56;4.13;;;2.60;;
4504;SDS011;2265;48.794;9.520;2024-03-29T01:24:23;4.90;;;2.80;;
4504;SDS011;2265;48.794;9.520;2024-03-29T01:26:50;2.40;;;1.80;;
4504;SDS011;2265;48.794;9.520;2024-03-29T01:29:17;3.70;;;2.27;;
4504;SDS011;2265;48.794;9.520;2024-03-29T01:31:43;3.70;;;1.83;;
4504;SDS011;2265;48.794;9.520;2024-03-29T01:34:09;2.67;;;2.13;;
4504;SDS011;2265;48.794;9.520;2024-03-29T01:36:35;5.00;;;2.30;;
4504;SDS011;2265;48.794;9.520;2024-03-29T01:39:01;7.10;;;2.30;;
4504;SDS011;2265;48.794;9.520;2024-03-29T01:41:29;3.83;;;2.40;;
4504;SDS011;2265;48.794;9.520;2024-03-29T01:43:56;3.47;;;2.03;;
4504;SDS011;2265;48.794;9.520;2024-03-29T01:46:23;1.83;;;1.60;;
4504;SDS011;2265;48.794;9.520;2024-03-29T01:48:51;2.17;;;1.63;;
4504;SDS011;2265;48.794;9.520;2024-03-29T01:51:19;2.50;;;1.70;;
4504;SDS011;2265;48.794;9.520;2024-03-29T01:53:48;4.33;;;2.53;;
4504;SDS011;2265;48.794;9.520;2024-03-29T01:56:19;3.20;;;2.20;;
4504;SDS011;2265;48.794;9.520;2024-03-29T01:58:47;2.97;;;2.13;;
4504;SDS011;2265;48.794;9.520;2024-03-29T02:01:20;3.33;;;1.83;;
4504;SDS011;2265;48.794;9.520;2024-03-29T02:03:48;1.67;;;1.57;;
4504;SDS011;2265;48.794;9.520;2024-03-29T02:06:19;3.83;;;1.80;;
4504;SDS011;2265;48.794;9.520;2024-03-29T02:08:47;2.70;;;1.50;;
4504;SDS011;2265;48.794;9.520;2024-03-29T02:11:18;2.73;;;1.37;;
4504;SDS011;2265;48.794;9.520;2024-03-29T02:13:45;1.77;;;1.20;;
4504;SDS011;2265;48.794;9.520;2024-03-29T02:16:13;1.50;;;1.30;;
4504;SDS011;2265;48.794;9.520;2024-03-29T02:18:41;1.70;;;1.30;;
4504;SDS011;2265;48.794;9.520;2024-03-29T02:21:08;1.90;;;1.40;;
4504;SDS011;2265;48.794;9.520;2024-03-29T02:23:36;1.50;;;1.30;;
4504;SDS011;2265;48.794;9.520;2024-03-29T02:26:08;1.33;;;1.23;;
4504;SDS011;2265;48.794;9.520;2024-03-29T02:28:35;5.30;;;1.70;;
4504;SDS011;2265;48.794;9.520;2024-03-29T02:31:02;1.80;;;1.40;;
4504;SDS011;2265;48.794;9.520;2024-03-29T02:33:30;1.93;;;1.47;;
4504;SDS011;2265;48.794;9.520;2024-03-29T02:35:57;2.23;;;1.40;;
4504;SDS011;2265;48.794;9.520;2024-03-29T02:38:24;1.67;;;1.40;;
4504;SDS011;2265;48.794;9.520;2024-03-29T02:40:51;1.27;;;1.10;;
4504;SDS011;2265;48.794;9.520;2024-03-29T02:43:20;1.70;;;1.30;;
4504;SDS011;2265;48.794;9.520;2024-03-29T02:45:47;1.60;;;1.40;;
4504;SDS011;2265;48.794;9.520;2024-03-29T02:48:14;1.50;;;1.43;;
4504;SDS011;2265;48.794;9.520;2024-03-29T02:50:40;1.53;;;1.40;;
4504;SDS011;2265;48.794;9.520;2024-03-29T02:53:07;1.40;;;1.30;;
4504;SDS011;2265;48.794;9.520;2024-03-29T02:55:34;2.53;;;1.40;;
4504;SDS011;2265;48.794;9.520;2024-03-29T02:58:00;1.80;;;1.30;;
4504;SDS011;2265;48.794;9.520;2024-03-29T03:00:29;1.93;;;1.40;;
4504;SDS011;2265;48.794;9.520;2024-03-29T03:02:55;3.40;;;1.50;;
4504;SDS011;2265;48.794;9.520;2024-03-29T03:05:22;1.90;;;1.50;;
4504;SDS011;2265;48.794;9.520;2024-03-29T03:07:48;1.50;;;1.30;;
4504;SDS011;2265;48.794;9.520;2024-03-29T03:10:33;1.80;;;1.50;;
4504;SDS011;2265;48.794;9.520;2024-03-29T03:13:18;2.07;;;1.37;;
4504;SDS011;2265;48.794;9.520;2024-03-29T03:15:46;1.93;;;1.40;;
4504;SDS011;2265;48.794;9.520;2024-03-29T03:18:13;1.60;;;1.50;;
4504;SDS011;2265;48.794;9.520;2024-03-29T03:20:41;2.33;;;1.40;;
4504;SDS011;2265;48.794;9.520;2024-03-29T03:23:07;2.00;;;1.40;;
4504;SDS011;2265;48.794;9.520;2024-03-29T03:25:34;1.40;;;1.30;;
4504;SDS011;2265;48.794;9.520;2024-03-29T03:28:00;1.90;;;1.50;;
4504;SDS011;2265;48.794;9.520;2024-03-29T03:30:28;1.70;;;1.40;;
4504;SDS011;2265;48.794;9.520;2024-03-29T03:32:56;2.73;;;1.53;;
4504;SDS011;2265;48.794;9.520;2024-03-29T03:35:23;1.90;;;1.47;;
4504;SDS011;2265;48.794;9.520;2024-03-29T03:37:49;1.97;;;1.37;;
4504;SDS011;2265;48.794;9.520;2024-03-29T03:40:16;1.70;;;1.40;;
4504;SDS011;2265;48.794;9.520;2024-03-29T03:42:43;1.40;;;1.30;;
4504;SDS011;2265;48.794;9.520;2024-03-29T03:45:10;2.77;;;1.60;;
4504;SDS011;2265;48.794;9.520;2024-03-29T03:47:37;1.40;;;1.30;;
4504;SDS011;2265;48.794;9.520;2024-03-29T03:50:05;2.33;;;1.50;;
4504;SDS011;2265;48.794;9.520;2024-03-29T03:52:33;1.53;;;1.43;;
4504;SDS011;2265;48.794;9.520;2024-03-29T03:55:03;1.50;;;1.33;;
4504;SDS011;2265;48.794;9.520;2024-03-29T03:57:29;1.60;;;1.40;;
4504;SDS011;2265;48.794;9.520;2024-03-29T03:59:56;1.93;;;1.40;;
4504;SDS011;2265;48.794;9.520;2024-03-29T04:02:22;2.03;;;1.37;;
4504;SDS011;2265;48.794;9.520;2024-03-29T04:04:50;2.20;;;1.43;;
4504;SDS011;2265;48.794;9.520;2024-03-29T04:07:19;1.37;;;1.30;;
4504;SDS011;2265;48.794;9.520;2024-03-29T04:09:46;1.50;;;1.40;;
4504;SDS011;2265;48.794;9.520;2024-03-29T04:12:15;2.63;;;1.60;;
4504;SDS011;2265;48.794;9.520;2024-03-29T04:14:42;1.50;;;1.33;;
4504;SDS011;2265;48.794;9.520;2024-03-29T04:17:09;1.70;;;1.40;;
4504;SDS011;2265;48.794;9.520;2024-03-29T04:19:37;1.40;;;1.30;;
4504;SDS011;2265;48.794;9.520;2024-03-29T04:22:03;2.17;;;1.40;;
4504;SDS011;2265;48.794;9.520;2024-03-29T04:24:31;2.30;;;1.43;;
4504;SDS011;2265;48.794;9.520;2024-03-29T04:26:57;1.63;;;1.30;;
4504;SDS011;2265;48.794;9.520;2024-03-29T04:29:26;1.57;;;1.37;;
4504;SDS011;2265;48.794;9.520;2024-03-29T04:31:52;1.87;;;1.33;;
4504;SDS011;2265;48.794;9.520;2024-03-29T04:34:19;1.50;;;1.37;;
4504;SDS011;2265;48.794;9.520;2024-03-29T04:36:45;1.90;;;1.50;;
4504;SDS011;2265;48.794;9.520;2024-03-29T04:39:13;1.60;;;1.50;;
4504;SDS011;2265;48.794;9.520;2024-03-29T04:41:42;2.10;;;1.33;;
4504;SDS011;2265;48.794;9.520;2024-03-29T04:44:11;1.60;;;1.47;;
4504;SDS011;2265;48.794;9.520;2024-03-29T04:46:39;2.03;;;1.40;;
4504;SDS011;2265;48.794;9.520;2024-03-29T04:49:06;4.60;;;1.57;;
4504;SDS011;2265;48.794;9.520;2024-03-29T04:51:33;1.70;;;1.50;;
4504;SDS011;2265;48.794;9.520;2024-03-29T04:54:01;2.33;;;1.53;;
4504;SDS011;2265;48.794;9.520;2024-03-29T04:56:29;1.80;;;1.50;;
4504;SDS011;2265;48.794;9.520;2024-03-29T04:58:58;2.43;;;1.43;;
4504;SDS011;2265;48.794;9.520;2024-03-29T05:01:25;1.50;;;1.40;;
4504;SDS011;2265;48.794;9.520;2024-03-29T05:03:52;2.17;;;1.57;;
4504;SDS011;2265;48.794;9.520;2024-03-29T05:06:20;1.70;;;1.50;;
4504;SDS011;2265;48.794;9.520;2024-03-29T05:08:47;2.00;;;1.50;;
4504;SDS011;2265;48.794;9.520;2024-03-29T05:11:17;1.47;;;1.20;;
4504;SDS011;2265;48.794;9.520;2024-03-29T05:13:46;1.97;;;1.40;;
4504;SDS011;2265;48.794;9.520;2024-03-29T05:16:15;2.00;;;1.67;;
4504;SDS011;2265;48.794;9.520;2024-03-29T05:18:42;1.83;;;1.40;;
4504;SDS011;2265;48.794;9.520;2024-03-29T05:21:09;1.80;;;1.43;;
4504;SDS011;2265;48.794;9.520;2024-03-29T05:23:37;1.73;;;1.60;;
4504;SDS011;2265;48.794;9.520;2024-03-29T05:26:04;1.73;;;1.50;;
4504;SDS011;2265;48.794;9.520;2024-03-29T05:28:31;1.60;;;1.40;;
4504;SDS011;2265;48.794;9.520;2024-03-29T05:31:08;2.20;;;1.40;;
4504;SDS011;2265;48.794;9.520;2024-03-29T05:33:40;1.70;;;1.60;;
4504;SDS011;2265;48.794;9.520;2024-03-29T05:36:07;1.60;;;1.40;;
4504;SDS011;2265;48.794;9.520;2024-03-29T05:38:36;1.90;;;1.40;;
4504;SDS011;2265;48.794;9.520;2024-03-29T05:41:04;2.43;;;1.30;;
4504;SDS011;2265;48.794;9.520;2024-03-29T05:43:33;1.70;;;1.30;;
4504;SDS011;2265;48.794;9.520;2024-03-29T05:46:01;2.10;;;1.67;;
4504;SDS011;2265;48.794;9.520;2024-03-29T05:48:28;2.20;;;1.50;;
4504;SDS011;2265;48.794;9.520;2024-03-29T05:50:57;1.83;;;1.60;;
4504;SDS011;2265;48.794;9.520;2024-03-29T05:53:24;4.60;;;1.50;;
4504;SDS011;2265;48.794;9.520;2024-03-29T05:55:51;2.43;;;1.57;;
4504;SDS011;2265;48.794;9.520;2024-03-29T05:58:18;2.67;;;1.67;;
4504;SDS011;2265;48.794;9.520;2024-03-29T06:00:46;4.63;;;1.70;;
4504;SDS011;2265;48.794;9.520;2024-03-29T06:03:14;1.70;;;1.50;;
4504;SDS011;2265;48.794;9.520;2024-03-29T06:05:42;2.30;;;1.67;;
4504;SDS011;2265;48.794;9.520;2024-03-29T06:08:11;3.00;;;1.70;;
4504;SDS011;2265;48.794;9.520;2024-03-29T06:10:38;1.67;;;1.50;;
4504;SDS011;2265;48.794;9.520;2024-03-29T06:13:05;2.70;;;1.47;;
4504;SDS011;2265;48.794;9.520;2024-03-29T06:15:52;2.40;;;1.53;;
4504;SDS011;2265;48.794;9.520;2024-03-29T06:18:37;1.90;;;1.40;;
4504;SDS011;2265;48.794;9.520;2024-03-29T06:21:04;4.80;;;1.60;;
4504;SDS011;2265;48.794;9.520;2024-03-29T06:23:32;1.77;;;1.40;;
4504;SDS011;2265;48.794;9.520;2024-03-29T06:25:59;1.50;;;1.23;;
4504;SDS011;2265;48.794;9.520;2024-03-29T06:28:26;1.40;;;1.33;;
4504;SDS011;2265;48.794;9.520;2024-03-29T06:30:53;1.50;;;1.40;;
4504;SDS011;2265;48.794;9.520;2024-03-29T06:33:21;1.53;;;1.20;;
4504;SDS011;2265;48.794;9.520;2024-03-29T06:35:52;1.63;;;1.40;;
4504;SDS011;2265;48.794;9.520;2024-03-29T06:38:20;2.13;;;1.47;;
4504;SDS011;2265;48.794;9.520;2024-03-29T06:40:48;8.93;;;1.60;;
4504;SDS011;2265;48.794;9.520;2024-03-29T06:43:16;2.07;;;1.40;;
4504;SDS011;2265;48.794;9.520;2024-03-29T06:45:43;2.07;;;1.43;;
4504;SDS011;2265;48.794;9.520;2024-03-29T06:48:10;1.77;;;1.47;;
4504;SDS011;2265;48.794;9.520;2024-03-29T06:50:39;2.13;;;1.60;;
4504;SDS011;2265;48.794;9.520;2024-03-29T06:53:08;1.50;;;1.23;;
4504;SDS011;2265;48.794;9.520;2024-03-29T06:55:35;1.50;;;1.50;;
4504;SDS011;2265;48.794;9.520;2024-03-29T06:58:04;1.93;;;1.50;;
4504;SDS011;2265;48.794;9.520;2024-03-29T07:00:32;2.40;;;1.53;;
4504;SDS011;2265;48.794;9.520;2024-03-29T07:02:59;1.80;;;1.67;;
4504;SDS011;2265;48.794;9.520;2024-03-29T07:05:26;1.80;;;1.60;;
4504;SDS011;2265;48.794;9.520;2024-03-29T07:07:54;1.50;;;1.50;;
4504;SDS011;2265;48.794;9.520;2024-03-29T07:10:21;2.20;;;1.70;;
4504;SDS011;2265;48.794;9.520;2024-03-29T07:12:49;1.90;;;1.50;;
4504;SDS011;2265;48.794;9.520;2024-03-29T07:15:17;4.33;;;1.97;;
4504;SDS011;2265;48.794;9.520;2024-03-29T07:17:44;2.97;;;2.00;;
4504;SDS011;2265;48.794;9.520;2024-03-29T07:20:15;3.80;;;1.60;;
4504;SDS011;2265;48.794;9.520;2024-03-29T07:22:42;2.77;;;1.80;;
4504;SDS011;2265;48.794;9.520;2024-03-29T07:25:10;2.10;;;1.80;;
4504;SDS011;2265;48.794;9.520;2024-03-29T07:27:37;2.77;;;1.73;;
4504;SDS011;2265;48.794;9.520;2024-03-29T07:30:06;2.27;;;1.60;;
4504;SDS011;2265;48.794;9.520;2024-03-29T07:32:36;2.43;;;1.60;;
4504;SDS011;2265;48.794;9.520;2024-03-29T07:35:04;1.67;;;1.60;;
4504;SDS011;2265;48.794;9.520;2024-03-29T07:37:31;2.40;;;1.70;;
4504;SDS011;2265;48.794;9.520;2024-03-29T07:39:58;3.23;;;1.63;;
4504;SDS011;2265;48.794;9.520;2024-03-29T07:42:25;1.90;;;1.50;;
4504;SDS011;2265;48.794;9.520;2024-03-29T07:44:52;3.40;;;1.60;;
4504;SDS011;2265;48.794;9.520;2024-03-29T07:47:19;1.53;;;1.40;;
4504;SDS011;2265;48.794;9.520;2024-03-29T07:49:50;2.60;;;1.70;;
4504;SDS011;2265;48.794;9.520;2024-03-29T07:52:17;4.17;;;2.00;;
4504;SDS011;2265;48.794;9.520;2024-03-29T07:54:44;2.17;;;1.60;;
4504;SDS011;2265;48.794;9.520;2024-03-29T07:57:12;2.13;;;1.83;;
4504;SDS011;2265;48.794;9.520;2024-03-29T07:59:41;3.80;;;1.60;;
4504;SDS011;2265;48.794;9.520;2024-03-29T08:02:09;1.80;;;1.67;;
4504;SDS011;2265;48.794;9.520;2024-03-29T08:04:37;3.80;;;1.53;;
4504;SDS011;2265;48.794;9.520;2024-03-29T08:07:05;2.77;;;1.50;;
4504;SDS011;2265;48.794;9.520;2024-03-29T08:09:33;2.23;;;1.50;;
4504;SDS011;2265;48.794;9.520;2024-03-29T08:12:00;5.13;;;1.50;;
4504;SDS011;2265;48.794;9.520;2024-03-29T08:14:27;1.73;;;1.47;;
4504;SDS011;2265;48.794;9.520;2024-03-29T08:16:54;1.73;;;1.40;;
4504;SDS011;2265;48.794;9.520;2024-03-29T08:21:49;4.60;;;2.17;;
4504;SDS011;2265;48.794;9.520;2024-03-29T08:24:18;2.70;;;1.83;;
4504;SDS011;2265;48.794;9.520;2024-03-29T08:26:45;1.60;;;1.43;;
4504;SDS011;2265;48.794;9.520;2024-03-29T08:29:12;1.83;;;1.53;;
4504;SDS011;2265;48.794;9.520;2024-03-29T08:31:39;2.67;;;1.77;;
4504;SDS011;2265;48.794;9.520;2024-03-29T08:34:06;2.27;;;1.80;;
4504;SDS011;2265;48.794;9.520;2024-03-29T08:36:38;2.90;;;1.80;;
4504;SDS011;2265;48.794;9.520;2024-03-29T08:39:06;3.13;;;1.60;;
4504;SDS011;2265;48.794;9.520;2024-03-29T08:41:34;2.80;;;1.73;;
4504;SDS011;2265;48.794;9.520;2024-03-29T08:44:02;1.90;;;1.60;;
4504;SDS011;2265;48.794;9.520;2024-03-29T08:46:30;2.90;;;1.93;;
4504;SDS011;2265;48.794;9.520;2024-03-29T08:48:57;2.47;;;1.83;;
4504;SDS011;2265;48.794;9.520;2024-03-29T08:51:24;3.13;;;1.93;;
4504;SDS011;2265;48.794;9.520;2024-03-29T08:53:51;3.10;;;2.00;;
4504;SDS011;2265;48.794;9.520;2024-03-29T08:56:18;3.60;;;2.50;;
4504;SDS011;2265;48.794;9.520;2024-03-29T08:58:47;3.73;;;2.40;;
4504;SDS011;2265;48.794;9.520;2024-03-29T09:01:16;5.00;;;2.50;;
4504;SDS011;2265;48.794;9.520;2024-03-29T09:03:46;5.20;;;2.87;;
4504;SDS011;2265;48.794;9.520;2024-03-29T09:06:14;4.50;;;2.67;;
4504;SDS011;2265;48.794;9.520;2024-03-29T09:08:41;4.97;;;3.00;;
4504;SDS011;2265;48.794;9.520;2024-03-29T09:11:08;4.93;;;3.10;;
4504;SDS011;2265;48.794;9.520;2024-03-29T09:13:36;6.70;;;3.10;;
4504;SDS011;2265;48.794;9.520;2024-03-29T09:16:05;6.97;;;3.77;;
4504;SDS011;2265;48.794;9.520;2024-03-29T09:18:33;7.50;;;3.60;;
4504;SDS011;2265;48.794;9.520;2024-03-29T09:21:00;4.50;;;2.87;;
4504;SDS011;2265;48.794;9.520;2024-03-29T09:23:27;4.73;;;2.60;;
4504;SDS011;2265;48.794;9.520;2024-03-29T09:25:55;4.70;;;2.20;;
4504;SDS011;2265;48.794;9.520;2024-03-29T09:28:23;2.53;;;2.20;;
4504;SDS011;2265;48.794;9.520;2024-03-29T09:30:56;4.27;;;2.30;;
4504;SDS011;2265;48.794;9.520;2024-03-29T09:33:28;3.30;;;2.10;;
4504;SDS011;2265;48.794;9.520;2024-03-29T09:36:01;3.83;;;2.23;;
4504;SDS011;2265;48.794;9.520;2024-03-29T09:38:29;3.70;;;2.50;;
4504;SDS011;2265;48.794;9.520;2024-03-29T09:41:00;7.87;;;3.60;;
4504;SDS011;2265;48.794;9.520;2024-03-29T09:43:37;3.83;;;2.50;;
4504;SDS011;2265;48.794;9.520;2024-03-29T09:46:07;4.60;;;2.80;;
4504;SDS011;2265;48.794;9.520;2024-03-29T09:48:42;6.93;;;2.80;;
4504;SDS011;2265;48.794;9.520;2024-03-29T09:51:16;12.57;;;3.37;;
4504;SDS011;2265;48.794;9.520;2024-03-29T09:53:45;7.23;;;3.13;;
4504;SDS011;2265;48.794;9.520;2024-03-29T09:56:13;9.37;;;4.13;;
4504;SDS011;2265;48.794;9.520;2024-03-29T09:58:42;8.43;;;3.47;;
4504;SDS011;2265;48.794;9.520;2024-03-29T10:01:11;5.97;;;3.53;;
4504;SDS011;2265;48.794;9.520;2024-03-29T10:03:43;8.53;;;3.10;;
4504;SDS011;2265;48.794;9.520;2024-03-29T10:06:15;5.93;;;3.20;;
4504;SDS011;2265;48.794;9.520;2024-03-29T10:08:45;5.30;;;2.70;;
4504;SDS011;2265;48.794;9.520;2024-03-29T10:11:12;12.07;;;5.47;;
4504;SDS011;2265;48.794;9.520;2024-03-29T10:13:42;5.80;;;3.50;;
4504;SDS011;2265;48.794;9.520;2024-03-29T10:16:10;6.80;;;3.53;;
4504;SDS011;2265;48.794;9.520;2024-03-29T10:18:40;5.53;;;3.00;;
4504;SDS011;2265;48.794;9.520;2024-03-29T10:21:10;4.20;;;2.90;;
4504;SDS011;2265;48.794;9.520;2024-03-29T10:23:37;6.63;;;3.30;;
4504;SDS011;2265;48.794;9.520;2024-03-29T10:26:06;5.73;;;3.40;;
4504;SDS011;2265;48.794;9.520;2024-03-29T10:28:35;7.37;;;3.70;;
4504;SDS011;2265;48.794;9.520;2024-03-29T10:31:03;8.93;;;3.47;;
4504;SDS011;2265;48.794;9.520;2024-03-29T10:33:32;7.67;;;3.97;;
4504;SDS011;2265;48.794;9.520;2024-03-29T10:36:00;10.33;;;4.73;;
4504;SDS011;2265;48.794;9.520;2024-03-29T10:38:31;8.17;;;4.50;;
4504;SDS011;2265;48.794;9.520;2024-03-29T10:40:59;10.20;;;4.30;;
4504;SDS011;2265;48.794;9.520;2024-03-29T10:43:28;7.90;;;3.93;;
4504;SDS011;2265;48.794;9.520;2024-03-29T10:45:56;6.70;;;3.90;;
4504;SDS011;2265;48.794;9.520;2024-03-29T10:48:25;7.20;;;3.97;;
4504;SDS011;2265;48.794;9.520;2024-03-29T10:50:53;5.97;;;3.50;;
4504;SDS011;2265;48.794;9.520;2024-03-29T10:53:22;8.53;;;3.80;;
4504;SDS011;2265;48.794;9.520;2024-03-29T10:55:54;8.57;;;3.83;;
4504;SDS011;2265;48.794;9.520;2024-03-29T10:58:30;13.50;;;5.53;;
4504;SDS011;2265;48.794;9.520;2024-03-29T11:01:03;11.43;;;5.20;;
4504;SDS011;2265;48.794;9.520;2024-03-29T11:03:32;6.40;;;3.97;;
4504;SDS011;2265;48.794;9.520;2024-03-29T11:06:04;5.50;;;3.43;;
4504;SDS011;2265;48.794;9.520;2024-03-29T11:08:32;11.73;;;4.50;;
4504;SDS011;2265;48.794;9.520;2024-03-29T11:11:07;10.70;;;4.70;;
4504;SDS011;2265;48.794;9.520;2024-03-29T11:13:40;7.00;;;4.27;;
4504;SDS011;2265;48.794;9.520;2024-03-29T11:16:12;6.10;;;3.43;;
4504;SDS011;2265;48.794;9.520;2024-03-29T11:18:41;7.97;;;4.10;;
4504;SDS011;2265;48.794;9.520;2024-03-29T11:21:09;6.77;;;3.70;;
4504;SDS011;2265;48.794;9.520;2024-03-29T11:23:37;7.70;;;3.80;;
4504;SDS011;2265;48.794;9.520;2024-03-29T11:26:07;6.43;;;3.47;;
4504;SDS011;2265;48.794;9.520;2024-03-29T11:28:34;6.53;;;3.53;;
4504;SDS011;2265;48.794;9.520;2024-03-29T11:31:03;10.40;;;3.40;;
4504;SDS011;2265;48.794;9.520;2024-03-29T11:33:32;4.67;;;2.90;;
4504;SDS011;2265;48.794;9.520;2024-03-29T11:36:05;4.43;;;2.50;;
4504;SDS011;2265;48.794;9.520;2024-03-29T11:38:36;2.57;;;1.90;;
4504;SDS011;2265;48.794;9.520;2024-03-29T11:41:04;2.93;;;2.10;;
4504;SDS011;2265;48.794;9.520;2024-03-29T11:43:34;3.23;;;2.00;;
4504;SDS011;2265;48.794;9.520;2024-03-29T11:46:04;2.50;;;1.80;;
4504;SDS011;2265;48.794;9.520;2024-03-29T11:48:32;3.37;;;2.17;;
4504;SDS011;2265;48.794;9.520;2024-03-29T11:51:01;3.00;;;2.00;;
4504;SDS011;2265;48.794;9.520;2024-03-29T11:53:29;2.17;;;1.83;;
4504;SDS011;2265;48.794;9.520;2024-03-29T11:55:57;3.40;;;1.90;;
4504;SDS011;2265;48.794;9.520;2024-03-29T11:58:27;6.23;;;1.80;;
4504;SDS011;2265;48.794;9.520;2024-03-29T12:00:55;3.50;;;2.07;;
4504;SDS011;2265;48.794;9.520;2024-03-29T12:03:24;2.53;;;1.97;;
4504;SDS011;2265;48.794;9.520;2024-03-29T12:05:53;6.50;;;2.20;;
4504;SDS011;2265;48.794;9.520;2024-03-29T12:08:24;4.60;;;2.50;;
4504;SDS011;2265;48.794;9.520;2024-03-29T12:10:52;3.17;;;2.13;;
4504;SDS011;2265;48.794;9.520;2024-03-29T12:13:22;4.10;;;2.53;;
4504;SDS011;2265;48.794;9.520;2024-03-29T12:15:50;4.07;;;2.30;;
4504;SDS011;2265;48.794;9.520;2024-03-29T12:18:19;2.77;;;2.00;;
4504;SDS011;2265;48.794;9.520;2024-03-29T12:20:47;4.17;;;2.70;;
4504;SDS011;2265;48.794;9.520;2024-03-29T12:23:16;3.00;;;2.10;;
4504;SDS011;2265;48.794;9.520;2024-03-29T12:25:44;3.33;;;2.23;;
4504;SDS011;2265;48.794;9.520;2024-03-29T12:28:12;4.73;;;2.80;;
4504;SDS011;2265;48.794;9.520;2024-03-29T12:30:41;5.90;;;2.50;;
4504;SDS011;2265;48.794;9.520;2024-03-29T12:33:12;4.60;;;2.40;;
4504;SDS011;2265;48.794;9.520;2024-03-29T12:35:41;3.07;;;2.37;;
4504;SDS011;2265;48.794;9.520;2024-03-29T12:38:10;2.93;;;2.20;;
4504;SDS011;2265;48.794;9.520;2024-03-29T12:40:40;4.30;;;2.50;;
4504;SDS011;2265;48.794;9.520;2024-03-29T12:43:09;4.20;;;2.43;;
4504;SDS011;2265;48.794;9.520;2024-03-29T12:45:38;4.70;;;2.43;;
4504;SDS011;2265;48.794;9.520;2024-03-29T12:48:12;4.60;;;2.40;;
4504;SDS011;2265;48.794;9.520;2024-03-29T12:50:40;3.67;;;2.33;;
4504;SDS011;2265;48.794;9.520;2024-03-29T12:53:09;3.97;;;2.40;;
4504;SDS011;2265;48.794;9.520;2024-03-29T12:55:39;4.17;;;2.30;;
4504;SDS011;2265;48.794;9.520;2024-03-29T12:58:11;4.47;;;2.53;;
4504;SDS011;2265;48.794;9.520;2024-03-29T13:00:38;4.60;;;2.43;;
4504;SDS011;2265;48.794;9.520;2024-03-29T13:03:06;3.63;;;2.50;;
4504;SDS011;2265;48.794;9.520;2024-03-29T13:05:36;4.20;;;2.60;;
4504;SDS011;2265;48.794;9.520;2024-03-29T13:08:06;4.93;;;2.60;;
4504;SDS011;2265;48.794;9.520;2024-03-29T13:10:35;3.80;;;2.43;;
4504;SDS011;2265;48.794;9.520;2024-03-29T13:13:04;3.67;;;2.47;;
4504;SDS011;2265;48.794;9.520;2024-03-29T13:15:32;3.40;;;2.20;;
4504;SDS011;2265;48.794;9.520;2024-03-29T13:18:00;4.00;;;2.40;;
4504;SDS011;2265;48.794;9.520;2024-03-29T13:20:27;6.00;;;2.40;;
4504;SDS011;2265;48.794;9.520;2024-03-29T13:22:56;4.00;;;2.47;;
4504;SDS011;2265;48.794;9.520;2024-03-29T13:25:23;4.47;;;2.50;;
4504;SDS011;2265;48.794;9.520;2024-03-29T13:27:50;3.33;;;2.30;;
4504;SDS011;2265;48.794;9.520;2024-03-29T13:30:21;3.23;;;2.40;;
4504;SDS011;2265;48.794;9.520;2024-03-29T13:32:49;4.90;;;2.30;;
4504;SDS011;2265;48.794;9.520;2024-03-29T13:35:16;2.80;;;2.07;;
4504;SDS011;2265;48.794;9.520;2024-03-29T13:37:46;2.47;;;2.03;;
4504;SDS011;2265;48.794;9.520;2024-03-29T13:40:16;3.67;;;2.07;;
4504;SDS011;2265;48.794;9.520;2024-03-29T13:42:44;3.97;;;2.50;;
4504;SDS011;2265;48.794;9.520;2024-03-29T13:45:11;2.90;;;2.00;;
4504;SDS011;2265;48.794;9.520;2024-03-29T13:47:39;2.70;;;1.83;;
4504;SDS011;2265;48.794;9.520;2024-03-29T13:50:08;4.03;;;2.27;;
4504;SDS011;2265;48.794;9.520;2024-03-29T13:52:36;4.60;;;2.50;;
4504;SDS011;2265;48.794;9.520;2024-03-29T13:55:04;2.70;;;2.00;;
4504;SDS011;2265;48.794;9.520;2024-03-29T13:57:34;5.37;;;2.00;;
4504;SDS011;2265;48.794;9.520;2024-03-29T14:00:01;2.87;;;2.00;;
4504;SDS011;2265;48.794;9.520;2024-03-29T14:02:30;3.83;;;1.93;;
4504;SDS011;2265;48.794;9.520;2024-03-29T14:04:58;2.33;;;2.00;;
4504;SDS011;2265;48.794;9.520;2024-03-29T14:07:25;2.17;;;1.80;;
4504;SDS011;2265;48.794;9.520;2024-03-29T14:09:53;2.33;;;2.00;;
4504;SDS011;2265;48.794;9.520;2024-03-29T14:12:20;2.13;;;1.90;;
4504;SDS011;2265;48.794;9.520;2024-03-29T14:14:50;2.70;;;1.83;;
4504;SDS011;2265;48.794;9.520;2024-03-29T14:17:18;2.30;;;1.80;;
4504;SDS011;2265;48.794;9.520;2024-03-29T14:19:46;3.20;;;1.90;;
4504;SDS011;2265;48.794;9.520;2024-03-29T14:22:14;2.20;;;1.90;;
4504;SDS011;2265;48.794;9.520;2024-03-29T14:24:44;2.13;;;1.90;;
4504;SDS011;2265;48.794;9.520;2024-03-29T14:27:11;2.23;;;1.97;;
4504;SDS011;2265;48.794;9.520;2024-03-29T14:29:39;2.20;;;1.80;;
4504;SDS011;2265;48.794;9.520;2024-03-29T14:32:11;2.67;;;2.23;;
4504;SDS011;2265;48.794;9.520;2024-03-29T14:34:39;4.57;;;2.30;;
4504;SDS011;2265;48.794;9.520;2024-03-29T14:37:11;3.10;;;2.03;;
4504;SDS011;2265;48.794;9.520;2024-03-29T14:39:41;2.63;;;2.00;;
4504;SDS011;2265;48.794;9.520;2024-03-29T14:42:09;2.57;;;2.00;;
4504;SDS011;2265;48.794;9.520;2024-03-29T14:44:38;2.57;;;2.13;;
4504;SDS011;2265;48.794;9.520;2024-03-29T14:47:06;3.50;;;2.00;;
4504;SDS011;2265;48.794;9.520;2024-03-29T14:49:34;2.00;;;1.80;;
4504;SDS011;2265;48.794;9.520;2024-03-29T14:52:01;2.63;;;1.80;;
4504;SDS011;2265;48.794;9.520;2024-03-29T14:54:29;2.53;;;1.97;;
4504;SDS011;2265;48.794;9.520;2024-03-29T14:56:56;2.50;;;2.00;;
4504;SDS011;2265;48.794;9.520;2024-03-29T14:59:23;2.20;;;1.70;;
4504;SDS011;2265;48.794;9.520;2024-03-29T15:01:51;3.90;;;2.00;;
4504;SDS011;2265;48.794;9.520;2024-03-29T15:04:20;2.93;;;1.90;;
4504;SDS011;2265;48.794;9.520;2024-03-29T15:06:57;2.77;;;1.90;;
4504;SDS011;2265;48.794;9.520;2024-03-29T15:09:26;2.07;;;1.80;;
4504;SDS011;2265;48.794;9.520;2024-03-29T15:11:53;2.50;;;1.80;;
4504;SDS011;2265;48.794;9.520;2024-03-29T15:14:20;2.77;;;1.97;;
4504;SDS011;2265;48.794;9.520;2024-03-29T15:16:47;2.80;;;2.03;;
4504;SDS011;2265;48.794;9.520;2024-03-29T15:19:15;4.90;;;1.90;;
4504;SDS011;2265;48.794;9.520;2024-03-29T15:21:42;2.83;;;2.10;;
4504;SDS011;2265;48.794;9.520;2024-03-29T15:24:11;2.53;;;2.00;;